Time;durP1;ratioP1;P1;durP2;ratioP2;P2;SDS_P1;SDS_P2;PMS_P1;PMS_P2;Temp;Humidity;BMP_temperature;BMP_pressure;BME280_temperature;BME280_humidity;BME280_pressure;Samples;Min_cycle;Max_cycle;Signal;HPM_P1;HPM_P2
2021/10/04 00:00:18;;;;;;;1.63;0.50;;;12.80;99.90;;;;;;4977321;28;20418;-88
2021/10/04 00:02:44;;;;;;;2.03;0.20;;;12.70;99.90;;;;;;4977679;28;20523;-81
2021/10/04 00:05:12;;;;;;;0.40;0.20;;;12.70;99.90;;;;;;4977573;28;20513;-85
2021/10/04 00:07:38;;;;;;;1.27;0.30;;;12.70;99.90;;;;;;4977482;28;20171;-84
2021/10/04 00:10:16;;;;;;;1.40;0.50;;;12.60;99.90;;;;;;4960396;28;20939;-87
2021/10/04 00:12:42;;;;;;;1.27;0.20;;;12.70;99.90;;;;;;4977441;28;20452;-87
2021/10/04 00:15:11;;;;;;;3.07;0.30;;;12.70;99.90;;;;;;4976985;28;20884;-88
2021/10/04 00:17:37;;;;;;;1.80;0.30;;;12.70;99.90;;;;;;4977325;28;20641;-83
2021/10/04 00:20:09;;;;;;;1.60;0.40;;;12.70;99.90;;;;;;4977336;28;20421;-82
2021/10/04 00:22:36;;;;;;;0.97;0.33;;;12.70;99.90;;;;;;4977362;28;20433;-83
2021/10/04 00:25:03;;;;;;;1.40;0.20;;;12.70;99.90;;;;;;4977206;28;20421;-84
2021/10/04 00:27:32;;;;;;;1.77;0.40;;;12.60;99.90;;;;;;4977247;28;20409;-83
2021/10/04 00:30:05;;;;;;;0.70;0.30;;;12.60;99.90;;;;;;4976761;28;20413;-82
2021/10/04 00:32:31;;;;;;;0.63;0.30;;;12.60;99.90;;;;;;4977137;28;20412;-83
2021/10/04 00:34:56;;;;;;;1.30;0.43;;;12.60;99.90;;;;;;4976932;28;20508;-83
2021/10/04 00:37:22;;;;;;;1.27;0.50;;;12.60;99.90;;;;;;4976757;28;20509;-84
2021/10/04 00:39:47;;;;;;;1.00;0.20;;;12.60;99.90;;;;;;4959622;28;20190;-83
2021/10/04 00:42:13;;;;;;;3.00;0.20;;;12.60;99.90;;;;;;4976988;28;20178;-86
2021/10/04 00:44:39;;;;;;;0.77;0.47;;;12.60;99.90;;;;;;4959171;28;20548;-84
2021/10/04 00:47:04;;;;;;;0.90;0.20;;;12.50;99.90;;;;;;4976876;28;20193;-83
2021/10/04 00:49:30;;;;;;;1.40;0.30;;;12.40;99.90;;;;;;4976144;28;20201;-82
2021/10/04 00:51:58;;;;;;;3.60;0.20;;;12.40;99.90;;;;;;4976684;28;20188;-87
2021/10/04 00:54:24;;;;;;;0.50;0.20;;;12.30;99.90;;;;;;4976412;28;20206;-83
2021/10/04 00:56:50;;;;;;;1.03;0.50;;;12.30;99.90;;;;;;4976585;28;20433;-88
2021/10/04 00:59:17;;;;;;;0.90;0.50;;;12.30;99.90;;;;;;4976232;28;20533;-82
2021/10/04 01:01:43;;;;;;;1.33;0.30;;;12.30;99.90;;;;;;4976812;28;20178;-82
2021/10/04 01:04:09;;;;;;;2.60;0.37;;;12.30;99.90;;;;;;4977850;28;20476;-82
2021/10/04 01:06:35;;;;;;;2.13;0.80;;;12.30;99.90;;;;;;4994241;28;20587;-82
2021/10/04 01:09:02;;;;;;;0.90;0.23;;;12.40;99.90;;;;;;4974052;28;20175;-83
2021/10/04 01:11:28;;;;;;;1.53;0.33;;;12.40;99.90;;;;;;4993374;28;20177;-81
2021/10/04 01:13:54;;;;;;;2.63;0.40;;;12.30;99.90;;;;;;4993892;28;20455;-83
2021/10/04 01:16:21;;;;;;;1.23;0.80;;;12.30;99.90;;;;;;4993642;28;20188;-82
2021/10/04 01:18:46;;;;;;;2.63;0.40;;;12.20;99.90;;;;;;4994085;28;20177;-83
2021/10/04 01:21:12;;;;;;;0.70;0.37;;;12.10;99.90;;;;;;4994116;28;20415;-82
2021/10/04 01:23:38;;;;;;;1.73;0.40;;;12.00;99.90;;;;;;4988631;28;21091;-81
2021/10/04 01:26:03;;;;;;;1.53;0.20;;;12.10;99.90;;;;;;4987295;28;20184;-82
2021/10/04 01:28:29;;;;;;;1.40;0.40;;;12.00;99.90;;;;;;4993035;28;20505;-82
2021/10/04 01:30:55;;;;;;;2.77;0.60;;;11.90;99.90;;;;;;4992127;28;20731;-82
2021/10/04 01:33:22;;;;;;;2.93;0.33;;;11.50;99.90;;;;;;4993792;28;20180;-82
2021/10/04 01:35:48;;;;;;;0.70;0.30;;;11.90;99.90;;;;;;4993801;28;20473;-82
2021/10/04 01:38:13;;;;;;;0.70;0.30;;;11.80;99.90;;;;;;4994017;28;20412;-82
2021/10/04 01:40:43;;;;;;;3.17;0.60;;;11.60;99.90;;;;;;4973648;28;20424;-82
2021/10/04 01:43:09;;;;;;;2.77;0.40;;;11.50;99.90;;;;;;4993857;28;20171;-82
2021/10/04 01:45:35;;;;;;;1.47;0.30;;;11.50;99.90;;;;;;4993678;28;20851;-82
2021/10/04 01:48:00;;;;;;;2.00;0.40;;;11.60;99.90;;;;;;4993526;28;20419;-84
2021/10/04 01:50:32;;;;;;;2.30;0.30;;;11.60;99.90;;;;;;4993479;28;20181;-82
2021/10/04 01:52:57;;;;;;;1.97;0.40;;;11.00;99.90;;;;;;4993338;28;20646;-84
2021/10/04 01:55:23;;;;;;;1.90;0.30;;;11.60;99.90;;;;;;4993308;28;20474;-83
2021/10/04 01:57:50;;;;;;;1.23;0.30;;;11.60;99.90;;;;;;4971809;28;20172;-81
2021/10/04 02:00:19;;;;;;;2.63;0.33;;;11.60;99.90;;;;;;4992713;28;20829;-81
2021/10/04 02:02:48;;;;;;;1.63;0.20;;;11.50;99.90;;;;;;4982336;28;20521;-82
2021/10/04 02:05:14;;;;;;;0.50;0.30;;;11.50;99.90;;;;;;4992907;28;20498;-82
2021/10/04 02:07:40;;;;;;;2.20;0.30;;;11.50;99.90;;;;;;4992900;28;20422;-82
2021/10/04 02:10:12;;;;;;;0.90;0.37;;;11.40;99.90;;;;;;4992932;28;20428;-82
2021/10/04 02:12:39;;;;;;;0.97;0.20;;;11.40;99.90;;;;;;4992799;28;20510;-81
2021/10/04 02:15:05;;;;;;;0.87;0.27;;;11.20;99.90;;;;;;4994099;28;20472;-82
2021/10/04 02:17:32;;;;;;;1.90;0.30;;;11.10;99.90;;;;;;4994411;28;20419;-81
2021/10/04 02:19:58;;;;;;;2.60;0.40;;;11.10;99.90;;;;;;4994534;28;20553;-81
2021/10/04 02:22:24;;;;;;;1.20;0.30;;;11.10;99.90;;;;;;4977014;28;20899;-82
2021/10/04 02:24:50;;;;;;;1.70;0.20;;;11.00;99.90;;;;;;4994378;28;20232;-81
2021/10/04 02:27:15;;;;;;;4.00;0.60;;;11.00;99.90;;;;;;4994380;28;20187;-81
2021/10/04 02:29:50;;;;;;;0.60;0.23;;;10.90;99.90;;;;;;4993991;28;20175;-82
2021/10/04 02:32:16;;;;;;;1.40;0.60;;;11.10;99.90;;;;;;4994352;28;20624;-81
2021/10/04 02:34:42;;;;;;;2.83;0.50;;;11.00;99.90;;;;;;4994209;28;20461;-81
2021/10/04 02:37:07;;;;;;;6.33;1.77;;;11.10;99.90;;;;;;4994144;28;20566;-81
2021/10/04 02:39:33;;;;;;;0.70;0.20;;;11.10;99.90;;;;;;4994086;28;20540;-81
2021/10/04 02:41:59;;;;;;;1.50;0.40;;;11.20;99.90;;;;;;4994159;28;20168;-82
2021/10/04 02:44:24;;;;;;;0.87;0.30;;;11.60;99.90;;;;;;4993730;28;20176;-82
2021/10/04 02:46:50;;;;;;;1.63;0.40;;;11.10;99.90;;;;;;4994126;28;20189;-86
2021/10/04 02:49:15;;;;;;;4.10;0.77;;;11.10;99.90;;;;;;4994036;28;20169;-82
2021/10/04 02:51:41;;;;;;;1.03;0.30;;;11.10;99.90;;;;;;4993993;28;20228;-82
2021/10/04 02:54:06;;;;;;;1.87;0.30;;;10.90;99.90;;;;;;4993861;28;20647;-82
2021/10/04 02:56:32;;;;;;;1.43;0.30;;;11.00;99.90;;;;;;4993914;28;20184;-82
2021/10/04 02:58:58;;;;;;;0.50;0.20;;;11.00;99.90;;;;;;4993479;28;20229;-83
2021/10/04 03:01:23;;;;;;;2.50;0.23;;;11.00;99.90;;;;;;4993970;28;20263;-81
2021/10/04 03:03:49;;;;;;;2.50;0.57;;;11.00;99.90;;;;;;4993915;28;20179;-83
2021/10/04 03:06:14;;;;;;;2.47;0.40;;;11.10;99.90;;;;;;4993648;28;20186;-81
2021/10/04 03:08:40;;;;;;;1.97;0.40;;;11.00;99.90;;;;;;4976402;28;20184;-81
2021/10/04 03:11:06;;;;;;;1.10;0.57;;;10.90;99.90;;;;;;4993764;28;20183;-82
2021/10/04 03:13:32;;;;;;;1.07;0.30;;;11.00;99.90;;;;;;4993297;28;20226;-81
2021/10/04 03:15:57;;;;;;;1.37;0.67;;;11.10;99.90;;;;;;4975940;28;20219;-81
2021/10/04 03:18:23;;;;;;;2.60;0.60;;;11.10;99.90;;;;;;4993681;28;20181;-82
2021/10/04 03:20:49;;;;;;;4.07;1.13;;;11.20;99.90;;;;;;4993613;28;20330;-81
2021/10/04 03:23:15;;;;;;;2.80;0.70;;;11.30;99.90;;;;;;4993557;28;20182;-81
2021/10/04 03:25:40;;;;;;;1.93;0.57;;;11.20;99.90;;;;;;4993515;28;20637;-82
2021/10/04 03:28:06;;;;;;;1.10;0.27;;;11.30;99.90;;;;;;4993572;28;20421;-81
2021/10/04 03:30:33;;;;;;;1.03;0.53;;;11.30;99.90;;;;;;4993171;28;20227;-81
2021/10/04 03:33:03;;;;;;;2.67;0.73;;;11.30;99.90;;;;;;4993613;28;20168;-82
2021/10/04 03:35:28;;;;;;;4.20;1.00;;;11.30;99.90;;;;;;4993267;28;21013;-82
2021/10/04 03:37:54;;;;;;;2.73;0.63;;;11.30;99.90;;;;;;4993445;28;20423;-81
2021/10/04 03:40:20;;;;;;;5.90;1.47;;;11.30;99.90;;;;;;4993319;28;20179;-82
2021/10/04 03:42:47;;;;;;;4.50;1.43;;;11.30;99.90;;;;;;4993491;28;20179;-82
2021/10/04 03:45:14;;;;;;;3.93;0.80;;;11.30;99.90;;;;;;4993120;28;20893;-83
2021/10/04 03:47:40;;;;;;;1.50;0.50;;;11.30;99.90;;;;;;4993568;28;20503;-83
2021/10/04 03:50:09;;;;;;;1.90;0.73;;;11.30;99.90;;;;;;4993710;28;20412;-81
2021/10/04 03:52:36;;;;;;;3.77;0.80;;;11.30;99.90;;;;;;4993941;28;20415;-82
2021/10/04 03:55:03;;;;;;;2.13;0.90;;;11.30;99.90;;;;;;4993462;28;20467;-81
2021/10/04 03:57:28;;;;;;;3.53;1.50;;;11.20;99.90;;;;;;4993192;28;20511;-81
2021/10/04 03:59:54;;;;;;;1.90;0.87;;;11.30;99.90;;;;;;4992431;28;20451;-81
2021/10/04 04:02:19;;;;;;;3.57;1.30;;;11.30;99.90;;;;;;4993225;28;20251;-83
2021/10/04 04:04:45;;;;;;;3.40;1.43;;;11.20;99.90;;;;;;4993433;28;20182;-82
2021/10/04 04:07:10;;;;;;;1.60;0.90;;;11.20;99.90;;;;;;4993333;28;20247;-82
2021/10/04 04:09:36;;;;;;;3.33;0.90;;;11.20;99.90;;;;;;4993279;28;20230;-81
2021/10/04 04:12:02;;;;;;;2.80;1.00;;;11.20;99.90;;;;;;4993099;28;20202;-81
2021/10/04 04:14:28;;;;;;;2.70;0.70;;;11.10;99.90;;;;;;4992907;28;20298;-81
2021/10/04 04:16:54;;;;;;;2.13;0.73;;;11.10;99.90;;;;;;4993132;28;20450;-82
2021/10/04 04:19:19;;;;;;;1.27;0.80;;;11.10;99.90;;;;;;4993153;28;20180;-81
2021/10/04 04:21:45;;;;;;;2.73;1.10;;;11.10;99.90;;;;;;4993066;28;20473;-81
2021/10/04 04:24:11;;;;;;;3.07;0.70;;;11.10;99.90;;;;;;4993340;28;20206;-81
2021/10/04 04:26:37;;;;;;;4.40;0.70;;;11.00;99.90;;;;;;4996635;28;20673;-82
2021/10/04 04:29:03;;;;;;;5.90;1.37;;;9.90;99.90;;;;;;4996254;28;21001;-81
2021/10/04 04:31:29;;;;;;;4.27;1.17;;;11.10;99.90;;;;;;4996572;28;20420;-81
2021/10/04 04:33:55;;;;;;;3.27;1.30;;;11.10;99.90;;;;;;4996391;28;20431;-81
2021/10/04 04:36:21;;;;;;;4.30;1.20;;;11.10;99.90;;;;;;4996256;28;20282;-83
2021/10/04 04:38:46;;;;;;;4.77;1.33;;;11.10;99.90;;;;;;4996338;28;20442;-81
2021/10/04 04:41:12;;;;;;;1.53;0.80;;;11.20;99.90;;;;;;4996336;28;20510;-81
2021/10/04 04:43:38;;;;;;;1.40;0.50;;;11.10;99.90;;;;;;4995935;28;20638;-81
2021/10/04 04:46:04;;;;;;;2.97;0.87;;;11.10;99.90;;;;;;4996242;28;20621;-81
2021/10/04 04:48:30;;;;;;;4.20;0.90;;;11.10;99.90;;;;;;4996172;28;20458;-81
2021/10/04 04:50:55;;;;;;;4.07;1.67;;;11.00;99.90;;;;;;4996254;28;20169;-82
2021/10/04 04:53:21;;;;;;;2.80;1.27;;;10.70;99.90;;;;;;4996119;28;20177;-81
2021/10/04 04:55:47;;;;;;;3.90;1.33;;;10.90;99.90;;;;;;4995929;28;20290;-81
2021/10/04 04:58:12;;;;;;;2.20;1.27;;;10.80;99.90;;;;;;4996067;28;20172;-82
2021/10/04 05:00:38;;;;;;;2.50;1.23;;;11.00;99.90;;;;;;4995629;28;20176;-82
2021/10/04 05:03:06;;;;;;;3.10;1.67;;;10.90;99.90;;;;;;4995880;28;20647;-82
2021/10/04 05:05:32;;;;;;;4.73;1.07;;;11.00;99.90;;;;;;4995780;28;20171;-81
2021/10/04 05:07:57;;;;;;;1.47;0.47;;;10.90;99.90;;;;;;4995819;28;20919;-81
2021/10/04 05:10:23;;;;;;;1.90;1.37;;;10.90;99.90;;;;;;4995847;28;20168;-81
2021/10/04 05:12:49;;;;;;;3.50;1.07;;;11.00;99.90;;;;;;4995534;28;20217;-80
2021/10/04 05:15:15;;;;;;;3.50;1.30;;;10.90;99.90;;;;;;4995328;28;20211;-81
2021/10/04 05:17:41;;;;;;;3.07;1.40;;;10.80;99.90;;;;;;4995662;28;20546;-80
2021/10/04 05:20:07;;;;;;;2.40;1.20;;;10.90;99.90;;;;;;4995598;28;20424;-81
2021/10/04 05:22:35;;;;;;;1.63;0.80;;;10.80;99.90;;;;;;4995484;28;20490;-80
2021/10/04 05:25:02;;;;;;;3.97;1.07;;;10.90;99.90;;;;;;4995489;28;20415;-81
2021/10/04 05:27:27;;;;;;;1.73;0.90;;;10.90;99.90;;;;;;4995478;28;20411;-81
2021/10/04 05:29:53;;;;;;;4.20;1.40;;;11.00;99.90;;;;;;4994949;28;20416;-81
2021/10/04 05:32:19;;;;;;;4.07;1.40;;;10.80;99.90;;;;;;4995327;28;20174;-81
2021/10/04 05:34:44;;;;;;;3.50;1.47;;;10.80;99.90;;;;;;4995163;28;20696;-80
2021/10/04 05:37:10;;;;;;;3.33;1.23;;;10.80;99.90;;;;;;4995131;28;20202;-81
2021/10/04 05:39:35;;;;;;;2.70;1.20;;;10.90;99.90;;;;;;4995225;28;20166;-82
2021/10/04 05:42:01;;;;;;;3.10;1.20;;;10.90;99.90;;;;;;4995179;28;20571;-81
2021/10/04 05:44:27;;;;;;;2.80;1.10;;;11.00;99.90;;;;;;4994802;28;20180;-81
2021/10/04 05:46:52;;;;;;;3.83;1.10;;;11.00;99.90;;;;;;4995029;28;20173;-81
2021/10/04 05:49:18;;;;;;;2.30;1.00;;;11.00;99.90;;;;;;4994918;28;20168;-81
2021/10/04 05:51:44;;;;;;;2.47;1.33;;;11.10;99.90;;;;;;4994981;28;20226;-81
2021/10/04 05:54:10;;;;;;;4.63;1.33;;;11.00;99.90;;;;;;4994704;28;20415;-81
2021/10/04 05:56:35;;;;;;;3.43;1.13;;;11.00;99.90;;;;;;4994883;28;20238;-81
2021/10/04 05:59:01;;;;;;;3.83;1.20;;;11.10;99.90;;;;;;4994541;28;20251;-81
2021/10/04 06:01:26;;;;;;;1.70;0.97;;;11.10;99.90;;;;;;4994820;28;20642;-81
2021/10/04 06:03:52;;;;;;;5.33;0.97;;;10.90;99.90;;;;;;4994738;28;20169;-81
2021/10/04 06:06:18;;;;;;;2.47;1.40;;;10.90;99.90;;;;;;4994810;28;20216;-80
2021/10/04 06:08:43;;;;;;;4.67;2.40;;;11.00;99.90;;;;;;4994865;28;20184;-82
2021/10/04 06:11:09;;;;;;;9.37;4.87;;;11.10;99.90;;;;;;4994836;28;20176;-81
2021/10/04 06:13:34;;;;;;;12.10;6.07;;;11.10;99.90;;;;;;4994377;28;20227;-81
2021/10/04 06:16:00;;;;;;;11.00;5.47;;;11.10;99.90;;;;;;4994707;28;20208;-80
2021/10/04 06:18:25;;;;;;;9.73;6.23;;;11.10;99.90;;;;;;4994633;28;20170;-80
2021/10/04 06:20:52;;;;;;;9.53;6.03;;;11.20;99.90;;;;;;4977138;28;20208;-81
2021/10/04 06:23:18;;;;;;;10.40;6.57;;;11.20;99.90;;;;;;4994409;28;20236;-80
2021/10/04 06:25:44;;;;;;;13.97;6.10;;;11.30;99.90;;;;;;4994375;28;20425;-81
2021/10/04 06:28:09;;;;;;;7.37;4.00;;;11.20;99.90;;;;;;4994336;28;20190;-81
2021/10/04 06:30:35;;;;;;;11.50;6.33;;;11.30;99.90;;;;;;4993985;28;20176;-82
2021/10/04 06:33:01;;;;;;;8.60;3.80;;;11.40;99.90;;;;;;4994270;28;20231;-81
2021/10/04 06:35:26;;;;;;;6.10;4.27;;;11.30;99.90;;;;;;4994067;28;20218;-81
2021/10/04 06:37:52;;;;;;;8.87;3.70;;;11.30;99.90;;;;;;4994459;28;20173;-80
2021/10/04 06:40:18;;;;;;;4.20;2.83;;;11.50;99.90;;;;;;4994195;28;20683;-81
2021/10/04 06:42:45;;;;;;;7.83;2.70;;;11.40;99.90;;;;;;4994377;28;20177;-83
2021/10/04 06:45:10;;;;;;;4.43;2.30;;;11.50;99.90;;;;;;4993693;28;20204;-81
2021/10/04 06:47:39;;;;;;;4.50;2.20;;;11.50;99.90;;;;;;4993507;28;20419;-80
2021/10/04 06:50:06;;;;;;;4.37;2.40;;;11.50;99.90;;;;;;4993986;28;20432;-80
2021/10/04 06:52:32;;;;;;;5.50;1.77;;;11.60;99.90;;;;;;4994024;28;20583;-80
2021/10/04 06:54:59;;;;;;;2.43;1.03;;;11.70;99.90;;;;;;4993836;28;21019;-80
2021/10/04 06:57:24;;;;;;;3.50;2.10;;;11.80;99.90;;;;;;4993207;28;20174;-80
2021/10/04 06:59:50;;;;;;;4.23;1.20;;;11.90;99.90;;;;;;4993100;28;20405;-80
2021/10/04 07:02:16;;;;;;;2.80;0.90;;;12.00;99.90;;;;;;4993702;28;20171;-80
2021/10/04 07:04:41;;;;;;;2.57;0.70;;;11.90;99.90;;;;;;4993815;28;20179;-80
2021/10/04 07:07:07;;;;;;;4.87;1.70;;;11.90;99.90;;;;;;4976278;28;20633;-80
2021/10/04 07:09:33;;;;;;;2.93;0.97;;;11.80;99.90;;;;;;4993731;28;20267;-80
2021/10/04 07:11:59;;;;;;;2.87;1.00;;;12.00;99.90;;;;;;4993468;28;20413;-80
2021/10/04 07:14:25;;;;;;;2.03;0.60;;;12.10;99.90;;;;;;4993344;28;20184;-80
2021/10/04 07:16:51;;;;;;;1.60;0.90;;;12.10;99.90;;;;;;4993679;28;20427;-80
2021/10/04 07:19:17;;;;;;;2.20;0.90;;;12.20;99.90;;;;;;4993632;28;20411;-80
2021/10/04 07:21:42;;;;;;;3.37;1.27;;;12.60;99.90;;;;;;4993564;28;20179;-80
2021/10/04 07:24:08;;;;;;;5.30;1.50;;;13.00;99.90;;;;;;4993631;28;20512;-80
2021/10/04 07:26:34;;;;;;;2.57;0.77;;;13.20;99.90;;;;;;4993584;28;20175;-80
2021/10/04 07:29:01;;;;;;;1.73;0.57;;;13.50;99.90;;;;;;4993108;28;20423;-80
2021/10/04 07:31:27;;;;;;;2.30;0.63;;;13.20;99.90;;;;;;4993463;28;20237;-80
2021/10/04 07:33:52;;;;;;;1.50;1.00;;;13.20;99.90;;;;;;4993565;28;20418;-80
2021/10/04 07:36:18;;;;;;;4.23;0.70;;;13.20;99.90;;;;;;4993351;28;20852;-80
2021/10/04 07:38:44;;;;;;;4.60;1.10;;;13.00;99.90;;;;;;4993453;28;20233;-80
2021/10/04 07:41:10;;;;;;;4.43;1.40;;;13.00;99.90;;;;;;4993508;28;20191;-81
2021/10/04 07:43:37;;;;;;;4.50;1.50;;;13.10;99.90;;;;;;4993060;28;20233;-80
2021/10/04 07:46:06;;;;;;;3.20;1.50;;;12.90;99.90;;;;;;4993413;28;20275;-81
2021/10/04 07:48:32;;;;;;;2.00;0.90;;;13.70;99.90;;;;;;4993342;28;20426;-80
2021/10/04 07:50:57;;;;;;;3.43;1.03;;;12.90;99.90;;;;;;4993357;28;20419;-81
2021/10/04 07:53:23;;;;;;;2.93;1.00;;;12.90;99.90;;;;;;4993354;28;20657;-81
2021/10/04 07:55:48;;;;;;;4.77;1.60;;;13.10;99.90;;;;;;4993138;28;20304;-81
2021/10/04 07:58:14;;;;;;;2.20;0.40;;;13.30;99.90;;;;;;4992797;28;20241;-82
2021/10/04 08:00:40;;;;;;;2.33;0.80;;;13.40;99.90;;;;;;4995796;28;20182;-82
2021/10/04 08:03:06;;;;;;;3.40;0.50;;;13.70;99.90;;;;;;4979573;28;20632;-82
2021/10/04 08:05:32;;;;;;;3.33;0.77;;;14.20;99.90;;;;;;4997061;28;20181;-82
2021/10/04 08:07:57;;;;;;;2.73;1.00;;;14.00;99.90;;;;;;4996879;28;20849;-82
2021/10/04 08:10:23;;;;;;;2.40;0.77;;;14.30;99.90;;;;;;4997066;28;20924;-81
2021/10/04 08:12:49;;;;;;;5.27;0.60;;;14.40;99.90;;;;;;4996726;28;20307;-81
2021/10/04 08:15:15;;;;;;;3.07;0.70;;;14.30;99.90;;;;;;4978984;28;20218;-81
2021/10/04 08:17:41;;;;;;;1.40;0.47;;;14.30;99.90;;;;;;4996888;28;20261;-82
2021/10/04 08:20:09;;;;;;;2.40;0.77;;;14.00;99.90;;;;;;4996801;28;20517;-82
2021/10/04 08:22:37;;;;;;;1.87;1.00;;;14.10;99.90;;;;;;4996772;28;20410;-81
2021/10/04 08:25:04;;;;;;;3.60;1.13;;;14.50;99.90;;;;;;4996844;28;20407;-81
2021/10/04 08:27:30;;;;;;;3.80;1.13;;;15.00;99.90;;;;;;4996871;28;20465;-83
2021/10/04 08:29:55;;;;;;;4.73;0.60;;;14.80;99.90;;;;;;4996435;28;20455;-84
2021/10/04 08:32:21;;;;;;;2.40;0.60;;;15.00;99.90;;;;;;4996690;28;20180;-86
2021/10/04 08:34:47;;;;;;;1.47;0.60;;;14.90;99.90;;;;;;4996562;28;20690;-81
2021/10/04 08:37:12;;;;;;;1.50;0.70;;;14.80;99.90;;;;;;4996496;28;20172;-82
2021/10/04 08:39:38;;;;;;;1.73;0.50;;;14.80;99.90;;;;;;4996099;28;20302;-82
2021/10/04 08:42:04;;;;;;;4.07;0.43;;;14.50;99.90;;;;;;4996353;28;20617;-81
2021/10/04 08:44:30;;;;;;;2.30;0.90;;;14.50;99.90;;;;;;4995953;28;20172;-82
2021/10/04 08:46:55;;;;;;;3.40;0.77;;;14.90;99.90;;;;;;4996254;28;20418;-81
2021/10/04 08:49:21;;;;;;;1.10;0.27;;;14.90;99.90;;;;;;4996237;28;20180;-82
2021/10/04 08:51:49;;;;;;;1.97;0.73;;;15.10;99.90;;;;;;4996136;28;20173;-82
2021/10/04 08:54:21;;;;;;;1.83;0.43;;;15.10;99.90;;;;;;4996028;28;20172;-82
2021/10/04 08:56:46;;;;;;;1.60;0.30;;;15.40;99.90;;;;;;4996122;28;20419;-82
2021/10/04 08:59:14;;;;;;;0.83;0.20;;;15.30;99.90;;;;;;4995624;28;20441;-81
2021/10/04 09:01:39;;;;;;;2.37;0.40;;;14.80;99.90;;;;;;4995979;28;20321;-82
2021/10/04 09:04:05;;;;;;;0.93;0.40;;;14.80;99.90;;;;;;4995974;28;20916;-85
2021/10/04 09:06:35;;;;;;;3.47;1.07;;;14.50;99.90;;;;;;4995881;28;20181;-82
2021/10/04 09:09:07;;;;;;;2.07;0.63;;;14.50;99.90;;;;;;4978356;28;20538;-82
2021/10/04 09:11:40;;;;;;;3.37;0.67;;;14.50;99.90;;;;;;4995510;28;20412;-82
2021/10/04 09:14:06;;;;;;;3.27;0.70;;;14.60;99.90;;;;;;4995261;28;20444;-82
2021/10/04 09:16:59;;;;;;;4.93;0.40;;;14.30;99.90;;;;;;4995664;28;20820;-81
2021/10/04 09:19:36;;;;;;;1.63;0.40;;;14.70;99.90;;;;;;4995688;28;20175;-82
2021/10/04 09:22:15;;;;;;;1.10;0.40;;;14.70;99.90;;;;;;4995682;28;20573;-81
2021/10/04 09:24:48;;;;;;;3.60;0.57;;;14.70;99.90;;;;;;4995562;28;20446;-83
2021/10/04 09:27:22;;;;;;;1.57;0.50;;;14.70;99.90;;;;;;4995506;28;20422;-83
2021/10/04 09:29:49;;;;;;;2.40;0.50;;;14.80;99.90;;;;;;4995026;28;20410;-82
2021/10/04 09:32:21;;;;;;;2.87;0.83;;;;;;;;;;4995372;28;20930;-82
2021/10/04 09:34:47;;;;;;;2.33;0.43;;;14.70;99.90;;;;;;4995122;28;20993;-83
2021/10/04 09:37:25;;;;;;;3.17;0.53;;;14.70;99.90;;;;;;4994322;28;20424;-83
2021/10/04 09:39:51;;;;;;;3.60;0.80;;;14.70;99.90;;;;;;4993559;28;20225;-82
2021/10/04 09:42:18;;;;;;;1.90;0.60;;;14.80;99.90;;;;;;4994135;28;20431;-82
2021/10/04 09:44:46;;;;;;;2.20;0.30;;;14.80;99.90;;;;;;4994929;28;20425;-83
2021/10/04 09:47:13;;;;;;;1.07;0.60;;;14.90;99.90;;;;;;4995202;28;20415;-82
2021/10/04 09:49:55;;;;;;;1.23;0.30;;;14.70;99.90;;;;;;4995181;28;20424;-82
2021/10/04 09:52:55;;;;;;;2.87;0.47;;;14.70;99.90;;;;;;4995062;28;20418;-84
2021/10/04 09:55:23;;;;;;;5.90;0.73;;;14.80;99.90;;;;;;4994960;28;20466;-82
2021/10/04 09:58:05;;;;;;;3.67;0.83;;;14.80;99.90;;;;;;4994685;28;20796;-82
2021/10/04 10:01:00;;;;;;;2.97;0.57;;;14.80;99.90;;;;;;4994942;28;20409;-83
2021/10/04 10:03:38;;;;;;;2.67;0.30;;;14.80;99.90;;;;;;4994866;28;20419;-82
2021/10/04 10:06:04;;;;;;;1.93;0.30;;;14.80;99.90;;;;;;4994956;28;20463;-83
2021/10/04 10:08:30;;;;;;;4.33;1.50;;;15.00;99.90;;;;;;4994794;28;20419;-82
2021/10/04 10:10:58;;;;;;;2.93;0.60;;;15.00;99.90;;;;;;4994907;28;20776;-82
2021/10/04 10:13:26;;;;;;;2.17;0.90;;;15.10;99.90;;;;;;4994206;28;20828;-84
2021/10/04 10:16:13;;;;;;;6.47;0.53;;;15.20;99.90;;;;;;4994809;28;20479;-83
2021/10/04 10:18:47;;;;;;;3.90;0.70;;;15.30;99.90;;;;;;4994623;28;20415;-82
2021/10/04 10:21:24;;;;;;;3.63;0.57;;;15.30;99.90;;;;;;4977351;28;20936;-82
2021/10/04 10:24:07;;;;;;;1.73;0.30;;;15.30;99.90;;;;;;4976457;28;20949;-83
2021/10/04 10:26:49;;;;;;;1.17;0.20;;;15.30;99.90;;;;;;4994490;28;20478;-82
2021/10/04 10:29:19;;;;;;;5.53;0.60;;;15.20;99.90;;;;;;4976267;28;20421;-82
2021/10/04 10:31:51;;;;;;;4.73;0.33;;;15.20;99.90;;;;;;4994320;28;20513;-83
2021/10/04 10:34:35;;;;;;;2.13;0.50;;;15.30;99.90;;;;;;4994281;28;20418;-82
2021/10/04 10:37:26;;;;;;;2.40;0.30;;;15.20;99.90;;;;;;4976642;28;20440;-82
2021/10/04 10:39:55;;;;;;;2.63;0.33;;;15.20;99.90;;;;;;4994220;28;20486;-82
2021/10/04 10:42:57;;;;;;;1.70;0.63;;;15.20;99.90;;;;;;4994194;28;20754;-82
2021/10/04 10:45:22;;;;;;;1.53;0.30;;;15.10;99.90;;;;;;4994221;28;20416;-82
2021/10/04 10:47:49;;;;;;;1.50;0.33;;;15.20;99.90;;;;;;4997416;28;20418;-83
2021/10/04 10:50:30;;;;;;;4.17;0.80;;;15.20;99.90;;;;;;4978168;28;20548;-82
2021/10/04 10:52:56;;;;;;;2.63;0.40;;;15.20;99.90;;;;;;4994373;28;20482;-85
2021/10/04 10:55:21;;;;;;;3.87;0.27;;;15.30;99.90;;;;;;4993908;28;20472;-83
2021/10/04 10:57:59;;;;;;;2.07;0.60;;;15.30;99.90;;;;;;4993504;28;20577;-83
2021/10/04 11:00:33;;;;;;;1.57;0.40;;;15.40;99.90;;;;;;4993982;28;20609;-82
2021/10/04 11:03:20;;;;;;;2.10;0.40;;;15.40;99.90;;;;;;4976358;28;20424;-82
2021/10/04 11:06:05;;;;;;;0.90;0.37;;;15.40;99.90;;;;;;4993866;28;20956;-82
2021/10/04 11:08:43;;;;;;;5.20;1.53;;;15.50;99.90;;;;;;4993938;28;20457;-83
2021/10/04 11:11:13;;;;;;;1.90;0.47;;;15.50;99.90;;;;;;4993656;28;20416;-82
2021/10/04 11:13:41;;;;;;;3.57;0.30;;;15.60;99.90;;;;;;4993125;28;20462;-82
2021/10/04 11:16:10;;;;;;;3.30;0.40;;;15.60;99.90;;;;;;4993651;28;20470;-82
2021/10/04 11:18:46;;;;;;;0.97;0.20;;;15.50;99.90;;;;;;4993660;28;20414;-83
2021/10/04 11:21:21;;;;;;;4.40;0.30;;;15.60;99.90;;;;;;4993634;28;20420;-82
2021/10/04 11:23:50;;;;;;;2.17;0.40;;;15.60;99.90;;;;;;4993676;28;20522;-82
2021/10/04 11:26:20;;;;;;;0.97;0.20;;;15.60;99.90;;;;;;4993700;28;20424;-83
2021/10/04 11:28:58;;;;;;;4.83;0.30;;;15.40;99.90;;;;;;4993159;28;20407;-82
2021/10/04 11:31:29;;;;;;;2.77;0.63;;;15.50;99.90;;;;;;4993603;28;20837;-82
2021/10/04 11:34:00;;;;;;;3.07;0.50;;;15.40;99.90;;;;;;4995061;28;20412;-82
2021/10/04 11:36:36;;;;;;;1.57;0.20;;;15.60;99.90;;;;;;4997514;28;20977;-82
2021/10/04 11:39:05;;;;;;;1.20;0.20;;;15.50;99.90;;;;;;4997668;28;20499;-84
2021/10/04 11:41:41;;;;;;;2.00;0.33;;;15.50;99.90;;;;;;4997645;28;20417;-92
2021/10/04 11:44:10;;;;;;;1.53;0.37;;;15.50;99.90;;;;;;4997513;28;20412;-83
2021/10/04 11:46:46;;;;;;;2.57;0.50;;;15.30;99.90;;;;;;4997133;28;20506;-82
2021/10/04 11:49:18;;;;;;;1.83;0.30;;;15.40;99.90;;;;;;4997351;28;20480;-81
2021/10/04 11:51:49;;;;;;;3.77;0.40;;;15.40;99.90;;;;;;4995433;28;20543;-82
2021/10/04 11:54:33;;;;;;;1.13;0.40;;;15.70;99.90;;;;;;4991620;28;20495;-81
2021/10/04 11:56:59;;;;;;;3.93;0.40;;;15.50;99.90;;;;;;4972833;28;20866;-82
2021/10/04 11:59:26;;;;;;;2.30;0.40;;;15.60;99.90;;;;;;4995596;28;20487;-81
2021/10/04 12:01:52;;;;;;;5.37;0.80;;;15.60;99.90;;;;;;4990664;28;20408;-81
2021/10/04 12:04:20;;;;;;;2.30;0.50;;;15.50;99.90;;;;;;4995659;28;20502;-81
2021/10/04 12:06:47;;;;;;;7.23;0.90;;;15.50;99.90;;;;;;4995551;28;20442;-81
2021/10/04 12:09:21;;;;;;;2.93;0.33;;;15.70;99.90;;;;;;4995786;28;21043;-82
2021/10/04 12:11:56;;;;;;;1.97;0.63;;;16.00;99.90;;;;;;4995439;28;20412;-87
2021/10/04 12:14:26;;;;;;;6.80;1.13;;;15.90;99.90;;;;;;4995199;28;20419;-80
2021/10/04 12:16:58;;;;;;;4.93;0.60;;;16.00;99.90;;;;;;4990522;28;20955;-80
2021/10/04 12:19:24;;;;;;;4.50;0.43;;;16.50;99.90;;;;;;4995534;28;20425;-81
2021/10/04 12:21:52;;;;;;;3.87;0.70;;;16.90;99.90;;;;;;4995472;28;20479;-81
2021/10/04 12:24:22;;;;;;;2.27;0.30;;;16.80;99.90;;;;;;4995453;28;20851;-81
2021/10/04 12:27:13;;;;;;;3.17;0.37;;;16.50;99.90;;;;;;4995269;28;20420;-81
2021/10/04 12:29:44;;;;;;;1.37;0.30;;;16.80;99.90;;;;;;4984259;28;20509;-82
2021/10/04 12:32:22;;;;;;;2.23;0.20;;;17.50;99.90;;;;;;4994909;28;20907;-82
2021/10/04 12:35:09;;;;;;;3.23;1.03;;;18.20;99.90;;;;;;4994753;28;20443;-81
2021/10/04 12:37:38;;;;;;;3.43;0.40;;;17.80;99.90;;;;;;4990313;28;20410;-81
2021/10/04 12:40:27;;;;;;;1.07;0.30;;;18.10;99.90;;;;;;4994859;28;20743;-82
2021/10/04 12:43:19;;;;;;;2.60;0.67;;;17.80;99.90;;;;;;4989375;28;20485;-81
2021/10/04 12:45:57;;;;;;;3.23;0.70;;;17.60;99.90;;;;;;4992375;28;20446;-81
2021/10/04 12:48:24;;;;;;;1.00;0.30;;;17.70;99.90;;;;;;4992645;28;20455;-81
2021/10/04 12:51:01;;;;;;;3.00;0.30;;;17.50;99.90;;;;;;4994865;28;20406;-81
2021/10/04 12:53:26;;;;;;;2.37;0.30;;;17.50;99.90;;;;;;4994474;28;20433;-82